createdAt,value
2018-07-25T00:00:01.606Z,26.10
2018-07-25T00:01:03.867Z,26.80
2018-07-25T00:02:07.110Z,24.20
2018-07-25T00:03:09.609Z,24.23
2018-07-25T00:04:11.855Z,27.32
2018-07-25T00:05:14.526Z,26.95
2018-07-25T00:06:16.855Z,25.55
2018-07-25T00:07:19.259Z,25.02
2018-07-25T00:08:21.549Z,26.33
2018-07-25T00:09:23.795Z,24.50
2018-07-25T00:10:30.782Z,24.30
2018-07-25T00:11:33.675Z,24.23
2018-07-25T00:12:36.010Z,24.30
2018-07-25T00:13:38.366Z,25.50
2018-07-25T00:14:40.752Z,20.43
2018-07-25T00:15:43.016Z,26.45
2018-07-25T00:16:45.492Z,24.37
2018-07-25T00:17:47.801Z,26.55
2018-07-25T00:18:50.853Z,25.02
2018-07-25T00:19:53.078Z,22.87
2018-07-25T00:20:55.541Z,24.92
2018-07-25T00:21:58.243Z,23.87
2018-07-25T00:23:00.533Z,22.75
2018-07-25T00:24:02.875Z,28.60
2018-07-25T00:25:05.335Z,22.48
2018-07-25T00:26:07.722Z,25.08
2018-07-25T00:27:10.415Z,25.27
2018-07-25T00:28:12.898Z,25.23
2018-07-25T00:29:15.199Z,24.65
2018-07-25T00:30:17.902Z,24.32
2018-07-25T00:31:20.679Z,24.40
2018-07-25T00:32:23.212Z,24.72
2018-07-25T00:33:25.593Z,23.05
2018-07-25T00:34:28.089Z,26.30
2018-07-25T00:35:30.741Z,19.87
2018-07-25T00:36:33.202Z,25.72
2018-07-25T00:37:35.593Z,23.85
2018-07-25T00:38:37.890Z,25.95
2018-07-25T00:39:40.829Z,22.77
2018-07-25T00:40:43.569Z,26.62
2018-07-25T00:41:46.050Z,27.73
2018-07-25T00:42:48.663Z,24.20
2018-07-25T00:43:51.191Z,25.75
2018-07-25T00:44:53.437Z,24.32
2018-07-25T00:45:55.761Z,25.77
2018-07-25T00:46:57.977Z,25.70
2018-07-25T00:48:00.261Z,23.52
2018-07-25T00:49:02.526Z,28.73
2018-07-25T00:50:04.805Z,26.90
2018-07-25T00:51:07.558Z,23.32
2018-07-25T00:52:10.305Z,24.90
2018-07-25T00:53:12.714Z,28.47
2018-07-25T00:54:15.019Z,27.10
2018-07-25T00:55:17.263Z,21.07
2018-07-25T00:56:19.703Z,24.95
2018-07-25T00:57:22.458Z,24.98
2018-07-25T00:58:25.461Z,25.23
2018-07-25T00:59:27.887Z,23.87
2018-07-25T01:00:30.287Z,22.35
2018-07-25T01:01:32.598Z,26.75
2018-07-25T01:02:34.846Z,25.50
2018-07-25T01:03:37.329Z,23.98
2018-07-25T01:04:39.741Z,27.58
2018-07-25T01:05:41.984Z,20.68
2018-07-25T01:06:44.405Z,22.05
2018-07-25T01:07:46.650Z,24.43
2018-07-25T01:08:48.934Z,24.05
2018-07-25T01:09:51.160Z,25.80
2018-07-25T01:10:53.456Z,25.82
2018-07-25T01:11:56.006Z,23.07
2018-07-25T01:12:58.301Z,27.15
2018-07-25T01:14:00.635Z,24.82
2018-07-25T01:15:02.910Z,26.70
2018-07-25T01:16:05.475Z,25.80
2018-07-25T01:17:07.691Z,24.77
2018-07-25T01:18:09.932Z,30.95
2018-07-25T01:19:12.213Z,23.92
2018-07-25T01:20:14.495Z,24.02
2018-07-25T01:21:16.782Z,26.85
2018-07-25T01:22:19.100Z,22.17
2018-07-25T01:23:21.380Z,26.73
2018-07-25T01:24:23.617Z,23.42
2018-07-25T01:25:25.869Z,23.45
2018-07-25T01:26:28.112Z,25.40
2018-07-25T01:27:30.393Z,27.00
2018-07-25T01:28:32.668Z,25.48
2018-07-25T01:29:34.901Z,24.05
2018-07-25T01:30:37.133Z,26.40
2018-07-25T01:31:39.413Z,23.83
2018-07-25T01:32:41.681Z,24.15
2018-07-25T01:33:43.913Z,28.83
2018-07-25T01:34:46.137Z,23.73
2018-07-25T01:35:48.393Z,25.10
2018-07-25T01:36:50.645Z,23.45
2018-07-25T01:37:52.858Z,25.00
2018-07-25T01:38:55.106Z,21.85
2018-07-25T01:39:57.326Z,22.50
2018-07-25T01:40:59.549Z,25.68
2018-07-25T01:42:01.807Z,22.22
2018-07-25T01:43:04.074Z,23.95
2018-07-25T01:44:06.825Z,25.97
2018-07-25T01:45:09.114Z,22.80
2018-07-25T01:46:11.391Z,25.90
2018-07-25T01:47:13.632Z,21.68
2018-07-25T01:48:15.810Z,24.65
2018-07-25T01:49:18.086Z,25.88
2018-07-25T01:50:20.321Z,22.77
2018-07-25T01:51:22.589Z,22.52
2018-07-25T01:52:24.809Z,23.15
2018-07-25T01:53:27.032Z,23.10
2018-07-25T01:54:29.253Z,24.12
2018-07-25T01:55:31.493Z,22.85
2018-07-25T01:56:33.742Z,25.20
2018-07-25T01:57:36.006Z,22.30
2018-07-25T01:58:38.230Z,24.87
2018-07-25T01:59:40.474Z,27.85
2018-07-25T02:00:44.749Z,23.42
2018-07-25T02:01:46.990Z,24.67
2018-07-25T02:02:49.212Z,21.80
2018-07-25T02:03:51.446Z,26.40
2018-07-25T02:04:53.660Z,22.40
2018-07-25T02:05:55.881Z,23.32
2018-07-25T02:06:58.108Z,24.43
2018-07-25T02:08:00.354Z,21.62
2018-07-25T02:09:03.881Z,21.02
2018-07-25T02:10:06.139Z,25.43
2018-07-25T02:11:08.345Z,24.02
2018-07-25T02:12:10.627Z,25.55
2018-07-25T02:13:14.916Z,22.95
2018-07-25T02:14:17.146Z,25.77
2018-07-25T02:15:19.405Z,24.75
2018-07-25T02:16:21.673Z,24.60
2018-07-25T02:17:23.916Z,23.38
2018-07-25T02:18:26.154Z,23.87
2018-07-25T02:19:28.434Z,28.20
2018-07-25T02:20:30.669Z,23.75
2018-07-25T02:21:32.911Z,23.12
2018-07-25T02:22:35.191Z,24.85
2018-07-25T02:23:37.406Z,25.52
2018-07-25T02:24:39.630Z,20.70
2018-07-25T02:25:41.877Z,23.83
2018-07-25T02:26:44.143Z,25.15
2018-07-25T02:27:46.394Z,23.60
2018-07-25T02:28:48.634Z,24.75
2018-07-25T02:29:50.878Z,23.55
2018-07-25T02:30:53.103Z,24.47
2018-07-25T02:31:55.330Z,27.20
2018-07-25T02:32:57.590Z,25.45
2018-07-25T02:34:05.405Z,23.90
2018-07-25T02:35:07.630Z,24.18
2018-07-25T02:36:09.908Z,25.48
2018-07-25T02:37:12.144Z,26.60
2018-07-25T02:38:14.371Z,21.80
2018-07-25T02:39:16.606Z,26.25
2018-07-25T02:40:18.848Z,24.45
2018-07-25T02:41:21.096Z,21.27
2018-07-25T02:42:23.362Z,29.27
2018-07-25T02:43:25.585Z,26.23
2018-07-25T02:44:27.824Z,21.23
2018-07-25T02:45:35.758Z,27.25
2018-07-25T02:46:37.990Z,25.48
2018-07-25T02:47:40.277Z,25.05
2018-07-25T02:48:42.551Z,25.02
2018-07-25T02:49:44.778Z,25.60
2018-07-25T02:50:47.021Z,23.20
2018-07-25T02:51:49.269Z,26.12
2018-07-25T02:52:51.512Z,26.52
2018-07-25T02:53:53.740Z,28.75
2018-07-25T02:54:55.970Z,28.90
2018-07-25T02:55:58.230Z,25.00
2018-07-25T02:57:00.492Z,25.68
2018-07-25T02:58:02.775Z,25.80
2018-07-25T02:59:05.022Z,23.92
2018-07-25T03:00:07.429Z,24.23
2018-07-25T03:01:09.655Z,26.42
2018-07-25T03:02:11.890Z,30.05
2018-07-25T03:03:14.126Z,24.77
2018-07-25T03:04:16.349Z,25.40
2018-07-25T03:05:18.577Z,26.73
2018-07-25T03:06:20.818Z,24.32
2018-07-25T03:07:23.034Z,29.77
2018-07-25T03:08:25.290Z,29.05
2018-07-25T03:09:27.527Z,27.55
2018-07-25T03:10:29.758Z,28.07
2018-07-25T03:11:32.005Z,24.67
2018-07-25T03:12:34.227Z,24.70
2018-07-25T03:13:36.474Z,28.57
2018-07-25T03:14:38.695Z,23.45
2018-07-25T03:15:40.918Z,23.02
2018-07-25T03:16:43.140Z,26.87
2018-07-25T03:17:45.411Z,22.45
2018-07-25T03:18:47.672Z,27.15
2018-07-25T03:19:49.867Z,24.05
2018-07-25T03:20:52.102Z,27.75
2018-07-25T03:21:54.354Z,21.00
2018-07-25T03:22:56.598Z,23.32
2018-07-25T03:23:58.858Z,23.60
2018-07-25T03:25:01.090Z,25.68
2018-07-25T03:26:03.367Z,25.65
2018-07-25T03:27:05.842Z,25.02
2018-07-25T03:28:08.022Z,25.88
2018-07-25T03:29:10.251Z,24.32
2018-07-25T03:30:12.469Z,25.75
2018-07-25T03:31:14.771Z,30.08
2018-07-25T03:32:16.957Z,30.72
2018-07-25T03:33:19.242Z,26.85
2018-07-25T03:34:21.466Z,27.22
2018-07-25T03:35:23.693Z,34.43
2018-07-25T03:36:25.930Z,27.77
2018-07-25T03:37:28.181Z,26.42
2018-07-25T03:38:30.437Z,28.12
2018-07-25T03:39:32.694Z,23.92
2018-07-25T03:40:34.947Z,28.00
2018-07-25T03:41:37.178Z,25.57
2018-07-25T03:42:39.405Z,23.67
2018-07-25T03:43:41.653Z,30.05
2018-07-25T03:44:43.889Z,28.38
2018-07-25T03:45:46.274Z,24.82
2018-07-25T03:46:48.524Z,27.85
2018-07-25T03:47:50.762Z,21.82
2018-07-25T03:48:53.005Z,26.93
2018-07-25T03:49:55.235Z,27.40
2018-07-25T03:50:57.459Z,22.45
2018-07-25T03:51:59.703Z,26.93
2018-07-25T03:53:01.931Z,27.20
2018-07-25T03:54:04.352Z,22.35
2018-07-25T03:55:06.610Z,24.55
2018-07-25T03:56:08.985Z,27.95
2018-07-25T03:57:11.239Z,26.40
2018-07-25T03:58:13.470Z,26.87
2018-07-25T03:59:15.710Z,22.58
2018-07-25T04:00:17.961Z,25.12
2018-07-25T04:01:20.217Z,28.38
2018-07-25T04:02:22.454Z,21.00
2018-07-25T04:03:24.670Z,27.30
2018-07-25T04:04:26.910Z,28.10
2018-07-25T04:05:29.158Z,27.67
2018-07-25T04:06:31.438Z,26.65
2018-07-25T04:07:33.650Z,27.32
2018-07-25T04:08:35.865Z,25.72
2018-07-25T04:09:38.111Z,34.95
2018-07-25T04:10:42.618Z,30.48
2018-07-25T04:11:44.829Z,26.23
2018-07-25T04:12:47.054Z,24.07
2018-07-25T04:13:49.288Z,30.05
2018-07-25T04:14:51.541Z,30.23
2018-07-25T04:15:53.765Z,27.60
2018-07-25T04:16:56.011Z,22.93
2018-07-25T04:17:58.253Z,26.93
2018-07-25T04:19:00.486Z,25.80
2018-07-25T04:20:02.781Z,28.35
2018-07-25T04:21:05.245Z,26.12
2018-07-25T04:22:07.494Z,25.90
2018-07-25T04:23:09.763Z,29.07
2018-07-25T04:24:12.008Z,23.85
2018-07-25T04:25:17.221Z,26.33
2018-07-25T04:26:19.643Z,28.83
2018-07-25T04:27:21.898Z,24.70
2018-07-25T04:28:25.131Z,29.48
2018-07-25T04:29:27.380Z,26.55
2018-07-25T04:30:29.594Z,31.00
2018-07-25T04:31:31.826Z,28.07
2018-07-25T04:32:34.070Z,31.30
2018-07-25T04:33:37.378Z,24.95
2018-07-25T04:34:39.673Z,24.87
2018-07-25T04:35:41.868Z,22.22
2018-07-25T04:36:44.129Z,27.52
2018-07-25T04:37:47.107Z,22.32
2018-07-25T04:38:49.366Z,26.60
2018-07-25T04:39:51.633Z,22.58
2018-07-25T04:40:53.850Z,24.47
2018-07-25T04:41:56.131Z,26.60
2018-07-25T04:42:58.394Z,24.82
2018-07-25T04:44:00.621Z,26.05
2018-07-25T04:45:02.941Z,28.90
2018-07-25T04:46:05.261Z,25.45
2018-07-25T04:47:07.457Z,23.98
2018-07-25T04:48:09.696Z,21.97
2018-07-25T04:49:12.039Z,25.45
2018-07-25T04:50:14.260Z,25.40
2018-07-25T04:51:16.499Z,25.68
2018-07-25T04:52:18.780Z,26.02
2018-07-25T04:53:21.038Z,26.95
2018-07-25T04:54:23.233Z,24.37
2018-07-25T04:55:25.477Z,28.32
2018-07-25T04:56:27.722Z,27.35
2018-07-25T04:57:29.989Z,25.45
2018-07-25T04:58:32.221Z,31.62
2018-07-25T04:59:34.453Z,28.00
2018-07-25T05:00:36.740Z,23.92
2018-07-25T05:01:40.019Z,25.85
2018-07-25T05:02:42.253Z,28.10
2018-07-25T05:03:44.478Z,28.07
2018-07-25T05:04:46.760Z,28.52
2018-07-25T05:05:49.510Z,26.35
2018-07-25T05:06:51.717Z,29.15
2018-07-25T05:07:53.945Z,29.90
2018-07-25T05:08:56.214Z,23.87
2018-07-25T05:09:58.466Z,26.93
2018-07-25T05:11:00.709Z,26.42
2018-07-25T05:12:04.566Z,30.50
2018-07-25T05:13:06.801Z,25.15
2018-07-25T05:14:09.050Z,27.02
2018-07-25T05:15:11.358Z,26.37
2018-07-25T05:16:13.684Z,26.52
2018-07-25T05:17:15.945Z,25.25
2018-07-25T05:18:18.182Z,23.65
2018-07-25T05:19:20.414Z,28.12
2018-07-25T05:20:22.686Z,21.70
2018-07-25T05:21:24.909Z,26.07
2018-07-25T05:22:27.118Z,26.40
2018-07-25T05:23:29.358Z,30.37
2018-07-25T05:24:31.598Z,27.62
2018-07-25T05:25:33.858Z,25.65
2018-07-25T05:26:36.127Z,27.00
2018-07-25T05:27:38.367Z,25.32
2018-07-25T05:28:40.601Z,26.20
2018-07-25T05:29:42.860Z,23.70
2018-07-25T05:30:45.070Z,27.07
2018-07-25T05:31:47.344Z,27.20
2018-07-25T05:32:49.590Z,26.15
2018-07-25T05:33:51.802Z,28.30
2018-07-25T05:34:54.057Z,26.25
2018-07-25T05:35:56.301Z,23.60
2018-07-25T05:36:58.549Z,24.70
2018-07-25T05:38:00.808Z,28.23
2018-07-25T05:39:05.118Z,27.20
2018-07-25T05:40:07.345Z,27.02
2018-07-25T05:41:09.542Z,24.27
2018-07-25T05:42:11.749Z,27.85
2018-07-25T05:43:14.010Z,23.20
2018-07-25T05:44:16.254Z,26.80
2018-07-25T05:45:18.547Z,25.70
2018-07-25T05:46:20.777Z,23.98
2018-07-25T05:47:22.989Z,25.95
2018-07-25T05:48:25.294Z,27.87
2018-07-25T05:49:27.629Z,25.70
2018-07-25T05:50:29.819Z,25.95
2018-07-25T05:51:32.117Z,26.10
2018-07-25T05:52:34.346Z,21.65
2018-07-25T05:53:36.560Z,26.17
2018-07-25T05:54:38.785Z,25.72
2018-07-25T05:55:41.014Z,22.73
2018-07-25T05:56:43.259Z,28.73
2018-07-25T05:57:45.425Z,25.75
2018-07-25T05:58:47.674Z,23.25
2018-07-25T05:59:49.871Z,25.25
2018-07-25T06:00:52.164Z,27.70
2018-07-25T06:01:54.351Z,24.98
2018-07-25T06:02:56.734Z,28.85
2018-07-25T06:03:58.887Z,24.60
2018-07-25T06:05:01.140Z,23.62
2018-07-25T06:06:03.461Z,31.27
2018-07-25T06:07:06.305Z,29.10
2018-07-25T06:08:08.658Z,26.75
2018-07-25T06:09:11.366Z,23.55
2018-07-25T06:10:13.757Z,25.60
2018-07-25T06:11:16.001Z,26.02
2018-07-25T06:12:18.241Z,29.15
2018-07-25T06:13:20.489Z,27.07
2018-07-25T06:14:22.785Z,23.00
2018-07-25T06:15:25.614Z,27.07
2018-07-25T06:16:27.886Z,22.37
2018-07-25T06:17:30.119Z,25.65
2018-07-25T06:18:32.365Z,24.30
2018-07-25T06:19:34.606Z,24.70
2018-07-25T06:20:36.946Z,30.08
2018-07-25T06:21:39.141Z,25.90
2018-07-25T06:22:41.385Z,28.23
2018-07-25T06:23:43.626Z,26.07
2018-07-25T06:24:45.925Z,25.30
2018-07-25T06:25:48.167Z,29.12
2018-07-25T06:26:50.355Z,31.90
2018-07-25T06:27:52.712Z,23.92
2018-07-25T06:28:54.897Z,29.52
2018-07-25T06:29:57.147Z,26.87
2018-07-25T06:30:59.437Z,26.27
2018-07-25T06:32:01.697Z,24.92
2018-07-25T06:33:03.934Z,28.30
2018-07-25T06:34:06.185Z,24.85
2018-07-25T06:35:08.401Z,28.30
2018-07-25T06:36:10.650Z,25.35
2018-07-25T06:37:12.900Z,21.93
2018-07-25T06:38:15.189Z,25.52
2018-07-25T06:39:17.455Z,26.55
2018-07-25T06:40:19.677Z,26.42
2018-07-25T06:41:21.962Z,27.70
2018-07-25T06:42:24.220Z,26.73
2018-07-25T06:43:26.469Z,24.60
2018-07-25T06:44:28.674Z,25.02
2018-07-25T06:45:30.921Z,28.05
2018-07-25T06:46:33.166Z,24.90
2018-07-25T06:47:35.613Z,27.67
2018-07-25T06:48:37.873Z,25.15
2018-07-25T06:49:40.065Z,25.95
2018-07-25T06:50:42.327Z,26.62
2018-07-25T06:51:44.598Z,20.45
2018-07-25T06:52:46.858Z,24.75
2018-07-25T06:53:49.094Z,24.57
2018-07-25T06:54:51.297Z,26.02
2018-07-25T06:55:53.512Z,26.95
2018-07-25T06:56:55.771Z,26.62
2018-07-25T06:57:58.033Z,22.80
2018-07-25T06:59:00.289Z,25.30
2018-07-25T07:00:02.717Z,24.15
2018-07-25T07:01:04.957Z,22.15
2018-07-25T07:02:07.217Z,24.75
2018-07-25T07:03:09.506Z,26.95
2018-07-25T07:04:11.709Z,23.05
2018-07-25T07:05:13.958Z,26.12
2018-07-25T07:06:16.186Z,23.80
2018-07-25T07:07:18.385Z,21.35
2018-07-25T07:08:20.622Z,29.48
2018-07-25T07:09:22.897Z,25.27
2018-07-25T07:10:25.132Z,23.32
2018-07-25T07:11:27.349Z,23.30
2018-07-25T07:12:29.579Z,21.23
2018-07-25T07:13:31.798Z,25.90
2018-07-25T07:14:34.224Z,27.32
2018-07-25T07:15:36.469Z,25.27
2018-07-25T07:16:38.697Z,23.73
2018-07-25T07:17:41.590Z,23.22
2018-07-25T07:18:43.988Z,24.12
2018-07-25T07:19:46.217Z,24.60
2018-07-25T07:20:48.463Z,20.50
2018-07-25T07:21:50.710Z,25.30
2018-07-25T07:22:52.981Z,24.57
2018-07-25T07:23:55.219Z,20.15
2018-07-25T07:24:57.410Z,20.30
2018-07-25T07:25:59.635Z,22.40
2018-07-25T07:27:01.824Z,20.15
2018-07-25T07:28:04.133Z,22.95
2018-07-25T07:29:06.346Z,24.25
2018-07-25T07:30:08.567Z,23.35
2018-07-25T07:31:10.763Z,27.02
2018-07-25T07:32:12.972Z,24.82
2018-07-25T07:33:15.222Z,25.50
2018-07-25T07:34:17.478Z,24.90
2018-07-25T07:35:19.706Z,26.57
2018-07-25T07:36:21.903Z,24.40
2018-07-25T07:37:24.190Z,26.07
2018-07-25T07:38:26.370Z,22.60
2018-07-25T07:39:28.616Z,22.15
2018-07-25T07:40:30.806Z,25.32
2018-07-25T07:41:32.995Z,29.25
2018-07-25T07:42:35.269Z,27.40
2018-07-25T07:43:37.452Z,28.07
2018-07-25T07:44:39.666Z,27.40
2018-07-25T07:45:41.849Z,26.73
2018-07-25T07:46:44.111Z,30.00
2018-07-25T07:47:46.398Z,26.75
2018-07-25T07:48:48.627Z,20.85
2018-07-25T07:49:50.829Z,25.20
2018-07-25T07:50:53.033Z,23.07
2018-07-25T07:51:55.239Z,21.27
2018-07-25T07:52:57.462Z,21.20
2018-07-25T07:53:59.902Z,21.77
2018-07-25T07:55:02.169Z,21.17
2018-07-25T07:56:04.469Z,21.97
2018-07-25T07:57:06.691Z,22.40
2018-07-25T07:58:08.922Z,23.40
2018-07-25T07:59:11.126Z,24.27
2018-07-25T08:00:13.349Z,20.70
2018-07-25T08:01:15.530Z,20.25
2018-07-25T08:02:17.712Z,23.75
2018-07-25T08:03:19.902Z,22.62
2018-07-25T08:04:22.157Z,22.55
2018-07-25T08:05:24.364Z,21.87
2018-07-25T08:06:26.581Z,20.30
2018-07-25T08:07:28.809Z,19.60
2018-07-25T08:08:31.111Z,19.90
2018-07-25T08:09:33.330Z,19.23
2018-07-25T08:10:35.606Z,18.92
2018-07-25T08:11:37.798Z,19.05
2018-07-25T08:12:40.280Z,22.17
2018-07-25T08:13:42.494Z,18.23
2018-07-25T08:14:44.665Z,21.70
2018-07-25T08:15:46.892Z,22.02
2018-07-25T08:16:49.069Z,21.12
2018-07-25T08:17:51.284Z,20.95
2018-07-25T08:18:53.506Z,20.88
2018-07-25T08:19:55.908Z,19.80
2018-07-25T08:20:58.219Z,19.65
2018-07-25T08:22:00.514Z,20.75
2018-07-25T08:23:09.442Z,19.15
2018-07-25T08:24:11.617Z,17.87
2018-07-25T08:25:13.797Z,22.80
2018-07-25T08:26:15.971Z,18.80
2018-07-25T08:27:18.184Z,19.62
2018-07-25T08:28:20.406Z,21.48
2018-07-25T08:29:22.604Z,22.82
2018-07-25T08:30:24.806Z,19.00
2018-07-25T08:31:27.042Z,25.12
2018-07-25T08:32:29.246Z,24.37
2018-07-25T08:33:31.466Z,20.20
2018-07-25T08:34:33.718Z,21.80
2018-07-25T08:35:35.861Z,22.85
2018-07-25T08:36:38.046Z,21.95
2018-07-25T08:37:40.258Z,18.37
2018-07-25T08:38:43.653Z,21.70
2018-07-25T08:39:45.850Z,21.97
2018-07-25T08:40:48.062Z,18.23
2018-07-25T08:41:50.259Z,21.12
2018-07-25T08:42:52.438Z,22.13
2018-07-25T08:43:54.648Z,20.68
2018-07-25T08:44:56.844Z,17.27
2018-07-25T08:45:59.149Z,19.00
2018-07-25T08:47:01.490Z,19.27
2018-07-25T08:48:03.748Z,22.42
2018-07-25T08:49:05.971Z,20.25
2018-07-25T08:50:08.921Z,16.90
2018-07-25T08:51:11.134Z,20.88
2018-07-25T08:52:13.334Z,19.32
2018-07-25T08:53:15.558Z,21.15
2018-07-25T08:54:17.784Z,17.70
2018-07-25T08:55:19.977Z,17.00
2018-07-25T08:56:22.232Z,17.60
2018-07-25T08:57:24.418Z,19.32
2018-07-25T08:58:26.788Z,14.87
2018-07-25T08:59:28.995Z,16.95
2018-07-25T09:00:31.297Z,15.98
2018-07-25T09:01:33.486Z,16.80
2018-07-25T09:02:35.690Z,18.65
2018-07-25T09:03:37.884Z,15.88
2018-07-25T09:04:40.098Z,15.00
2018-07-25T09:05:42.305Z,18.05
2018-07-25T09:06:44.494Z,17.73
2018-07-25T09:07:46.678Z,19.12
2018-07-25T09:08:48.878Z,18.62
2018-07-25T09:09:51.114Z,16.10
2018-07-25T09:10:53.359Z,13.40
2018-07-25T09:11:55.583Z,16.02
2018-07-25T09:12:57.854Z,16.50
2018-07-25T09:14:00.035Z,15.00
2018-07-25T09:15:02.299Z,16.85
2018-07-25T09:16:04.566Z,16.20
2018-07-25T09:17:06.811Z,15.95
2018-07-25T09:18:09.073Z,14.78
2018-07-25T09:19:11.231Z,15.70
2018-07-25T09:20:13.465Z,14.98
2018-07-25T09:21:15.662Z,16.40
2018-07-25T09:22:17.877Z,15.98
2018-07-25T09:23:20.086Z,17.27
2018-07-25T09:24:22.392Z,16.25
2018-07-25T09:25:24.629Z,15.40
2018-07-25T09:26:26.789Z,19.65
2018-07-25T09:27:29.006Z,17.17
2018-07-25T09:28:31.250Z,17.27
2018-07-25T09:29:33.457Z,16.60
2018-07-25T09:30:35.748Z,15.08
2018-07-25T09:31:37.925Z,16.95
2018-07-25T09:32:40.137Z,15.75
2018-07-25T09:33:42.358Z,17.50
2018-07-25T09:34:44.585Z,16.85
2018-07-25T09:35:46.797Z,16.60
2018-07-25T09:36:49.015Z,13.53
2018-07-25T09:37:51.220Z,16.45
2018-07-25T09:38:53.418Z,15.00
2018-07-25T09:39:55.614Z,15.30
2018-07-25T09:40:57.863Z,16.00
2018-07-25T09:42:00.057Z,16.40
2018-07-25T09:43:02.283Z,15.85
2018-07-25T09:44:04.543Z,16.70
2018-07-25T09:45:07.143Z,18.27
2018-07-25T09:46:09.369Z,14.07
2018-07-25T09:47:11.571Z,14.73
2018-07-25T09:48:13.762Z,17.27
2018-07-25T09:49:16.120Z,18.67
2018-07-25T09:50:18.349Z,15.10
2018-07-25T09:51:20.593Z,18.52
2018-07-25T09:52:22.803Z,15.45
2018-07-25T09:53:25.002Z,15.30
2018-07-25T09:54:27.170Z,17.10
2018-07-25T09:55:29.407Z,15.13
2018-07-25T09:56:31.621Z,14.85
2018-07-25T09:57:33.878Z,17.98
2018-07-25T09:58:36.108Z,18.07
2018-07-25T09:59:38.314Z,16.67
2018-07-25T10:00:46.469Z,18.62
2018-07-25T10:01:48.670Z,17.80
2018-07-25T10:02:50.882Z,15.03
2018-07-25T10:03:53.082Z,18.05
2018-07-25T10:04:55.305Z,16.75
2018-07-25T10:05:57.526Z,13.80
2018-07-25T10:06:59.815Z,13.48
2018-07-25T10:08:02.023Z,15.60
2018-07-25T10:09:07.315Z,15.03
2018-07-25T10:10:09.538Z,15.53
2018-07-25T10:11:11.729Z,16.23
2018-07-25T10:12:14.008Z,13.90
2018-07-25T10:13:16.189Z,15.90
2018-07-25T10:14:18.378Z,17.23
2018-07-25T10:15:20.626Z,14.50
2018-07-25T10:16:22.945Z,16.87
2018-07-25T10:17:25.435Z,19.70
2018-07-25T10:18:27.676Z,15.55
2018-07-25T10:19:29.865Z,14.90
2018-07-25T10:20:32.126Z,16.50
2018-07-25T10:21:34.746Z,15.58
2018-07-25T10:22:36.977Z,15.98
2018-07-25T10:23:39.216Z,17.77
2018-07-25T10:24:41.509Z,14.00
2018-07-25T10:25:43.750Z,17.60
2018-07-25T10:26:45.976Z,15.80
2018-07-25T10:27:48.184Z,14.13
2018-07-25T10:28:50.350Z,16.23
2018-07-25T10:29:52.575Z,17.98
2018-07-25T10:30:54.750Z,12.07
2018-07-25T10:31:56.971Z,12.30
2018-07-25T10:32:59.159Z,18.40
2018-07-25T10:34:01.346Z,16.87
2018-07-25T10:35:03.622Z,14.00
2018-07-25T10:36:05.881Z,14.90
2018-07-25T10:37:08.075Z,16.37
2018-07-25T10:38:10.258Z,15.65
2018-07-25T10:39:12.454Z,15.80
2018-07-25T10:40:14.674Z,19.32
2018-07-25T10:41:16.917Z,17.80
2018-07-25T10:42:19.168Z,15.23
2018-07-25T10:43:21.385Z,15.98
2018-07-25T10:44:23.581Z,14.70
2018-07-25T10:45:25.828Z,16.48
2018-07-25T10:46:28.023Z,16.70
2018-07-25T10:47:30.269Z,16.80
2018-07-25T10:48:32.610Z,13.72
2018-07-25T10:49:34.825Z,14.87
2018-07-25T10:50:37.041Z,14.50
2018-07-25T10:51:39.246Z,12.93
2018-07-25T10:52:41.466Z,13.68
2018-07-25T10:53:43.679Z,14.40
2018-07-25T10:54:46.039Z,15.78
2018-07-25T10:55:48.286Z,15.63
2018-07-25T10:56:50.480Z,10.63
2018-07-25T10:57:52.671Z,14.00
2018-07-25T10:58:54.899Z,14.98
2018-07-25T10:59:57.125Z,15.08
2018-07-25T11:00:59.437Z,12.03
2018-07-25T11:02:01.750Z,15.95
2018-07-25T11:03:03.955Z,15.80
2018-07-25T11:04:06.165Z,13.90
2018-07-25T11:05:08.358Z,14.75
2018-07-25T11:06:10.590Z,13.72
2018-07-25T11:07:12.791Z,13.93
2018-07-25T11:08:14.995Z,14.90
2018-07-25T11:09:17.210Z,15.43
2018-07-25T11:10:19.445Z,12.55
2018-07-25T11:11:21.696Z,14.18
2018-07-25T11:12:23.971Z,16.55
2018-07-25T11:13:26.177Z,14.13
2018-07-25T11:14:28.427Z,15.20
2018-07-25T11:15:30.674Z,15.90
2018-07-25T11:16:32.967Z,15.60
2018-07-25T11:17:35.094Z,15.30
2018-07-25T11:18:37.338Z,14.03
2018-07-25T11:19:39.559Z,13.18
2018-07-25T11:20:41.802Z,16.25
2018-07-25T11:21:44.041Z,15.13
2018-07-25T11:22:46.278Z,15.00
2018-07-25T11:23:48.481Z,15.38
2018-07-25T11:24:50.886Z,14.00
2018-07-25T11:25:54.050Z,11.95
2018-07-25T11:26:56.356Z,14.23
2018-07-25T11:27:58.575Z,15.65
2018-07-25T11:29:00.778Z,13.53
2018-07-25T11:30:03.068Z,12.13
2018-07-25T11:31:05.838Z,15.20
2018-07-25T11:32:08.061Z,14.20
2018-07-25T11:33:10.268Z,15.88
2018-07-25T11:34:12.487Z,15.83
2018-07-25T11:35:14.682Z,13.40
2018-07-25T11:36:16.900Z,15.50
2018-07-25T11:37:19.130Z,15.08
2018-07-25T11:38:21.488Z,13.08
2018-07-25T11:39:23.696Z,14.40
2018-07-25T11:40:25.962Z,11.60
2018-07-25T11:41:28.277Z,12.30
2018-07-25T11:42:30.485Z,15.13
2018-07-25T11:43:32.686Z,13.28
2018-07-25T11:44:34.930Z,12.03
2018-07-25T11:45:37.131Z,13.38
2018-07-25T11:46:39.342Z,13.75
2018-07-25T11:47:41.553Z,11.60
2018-07-25T11:48:43.758Z,12.65
2018-07-25T11:49:45.978Z,14.85
2018-07-25T11:50:48.177Z,12.37
2018-07-25T11:51:50.414Z,12.88
2018-07-25T11:52:52.631Z,15.08
2018-07-25T11:53:54.866Z,11.63
2018-07-25T11:54:57.109Z,11.35
2018-07-25T11:55:59.310Z,15.08
2018-07-25T11:57:01.535Z,11.63
2018-07-25T11:58:04.195Z,9.90
2018-07-25T11:59:06.542Z,13.45
2018-07-25T12:00:08.770Z,14.18
2018-07-25T12:01:11.035Z,15.45
2018-07-25T12:02:13.215Z,13.83
2018-07-25T12:03:15.458Z,12.13
2018-07-25T12:04:17.678Z,13.60
2018-07-25T12:05:19.880Z,11.48
2018-07-25T12:06:22.099Z,10.75
2018-07-25T12:07:24.357Z,12.73
2018-07-25T12:08:26.579Z,13.68
2018-07-25T12:09:28.799Z,11.40
2018-07-25T12:10:31.058Z,10.35
2018-07-25T12:11:34.943Z,13.35
2018-07-25T12:12:37.177Z,13.40
2018-07-25T12:13:39.418Z,16.90
2018-07-25T12:14:41.645Z,16.40
2018-07-25T12:15:43.883Z,14.50
2018-07-25T12:16:46.106Z,13.90
2018-07-25T12:17:48.345Z,15.30
2018-07-25T12:18:50.550Z,14.07
2018-07-25T12:19:52.770Z,14.68
2018-07-25T12:20:54.993Z,14.68
2018-07-25T12:21:57.233Z,12.78
2018-07-25T12:22:59.487Z,12.07
2018-07-25T12:24:01.721Z,16.15
2018-07-25T12:25:05.135Z,15.98
2018-07-25T12:26:07.366Z,13.05
2018-07-25T12:27:10.314Z,13.18
2018-07-25T12:28:12.630Z,13.88
2018-07-25T12:29:14.854Z,14.55
2018-07-25T12:30:17.098Z,13.30
2018-07-25T12:31:19.352Z,13.10
2018-07-25T12:32:21.606Z,15.38
2018-07-25T12:33:23.828Z,16.40
2018-07-25T12:34:26.027Z,11.68
2018-07-25T12:35:28.213Z,16.02
2018-07-25T12:36:30.465Z,13.98
2018-07-25T12:37:32.729Z,13.05
2018-07-25T12:38:34.934Z,14.60
2018-07-25T12:39:37.150Z,15.25
2018-07-25T12:40:39.400Z,13.65
2018-07-25T12:41:41.621Z,11.18
2018-07-25T12:42:43.890Z,13.50
2018-07-25T12:43:46.174Z,14.30
2018-07-25T12:44:48.417Z,13.93
2018-07-25T12:45:50.625Z,14.70
2018-07-25T12:46:52.830Z,14.38
2018-07-25T12:47:55.044Z,12.43
2018-07-25T12:48:57.233Z,14.25
2018-07-25T12:49:59.432Z,13.18
2018-07-25T12:51:01.686Z,13.03
2018-07-25T12:52:03.902Z,13.60
2018-07-25T12:53:06.352Z,13.90
2018-07-25T12:54:08.720Z,13.50
2018-07-25T12:55:10.818Z,12.75
2018-07-25T12:56:13.074Z,14.28
2018-07-25T12:57:15.268Z,11.35
2018-07-25T12:58:17.542Z,13.30
2018-07-25T12:59:19.759Z,15.13
2018-07-25T13:00:22.009Z,12.10
2018-07-25T13:01:24.221Z,13.85
2018-07-25T13:02:26.462Z,15.83
2018-07-25T13:03:28.769Z,12.70
2018-07-25T13:04:31.069Z,15.20
2018-07-25T13:05:33.371Z,14.28
2018-07-25T13:06:35.642Z,12.50
2018-07-25T13:07:37.930Z,12.80
2018-07-25T13:08:40.121Z,13.78
2018-07-25T13:09:42.355Z,11.35
2018-07-25T13:10:44.607Z,12.20
2018-07-25T13:11:46.815Z,14.15
2018-07-25T13:12:49.026Z,12.60
2018-07-25T13:13:51.252Z,13.50
2018-07-25T13:14:54.245Z,9.30
2018-07-25T13:15:56.507Z,15.25
2018-07-25T13:16:58.693Z,13.85
2018-07-25T13:18:00.912Z,12.05
2018-07-25T13:19:03.287Z,13.20
2018-07-25T13:20:06.023Z,13.88
2018-07-25T13:21:08.257Z,12.80
2018-07-25T13:22:10.516Z,14.28